Time;durP1;ratioP1;P1;durP2;ratioP2;P2;SDS_P1;SDS_P2;PMS_P1;PMS_P2;Temp;Humidity;BMP_temperature;BMP_pressure;BME280_temperature;BME280_humidity;BME280_pressure;Samples;Min_cycle;Max_cycle;Signal;HPM_P1;HPM_P2
2022/04/22 00:00:42;;;;;;;1.93;1.83;;;;;19.20;99783.00;;;;2071339;28;20214;-46
2022/04/22 00:01:43;;;;;;;3.10;2.23;;;;;19.20;99784.00;;;;2071072;28;20214;-46
2022/04/22 00:02:44;;;;;;;2.70;2.50;;;;;19.20;99787.00;;;;2070379;28;20210;-46
2022/04/22 00:03:45;;;;;;;2.40;2.20;;;;;19.20;99785.00;;;;2070211;28;20218;-47
2022/04/22 00:04:46;;;;;;;2.30;2.10;;;;;19.20;99777.00;;;;2073683;28;20210;-46
2022/04/22 00:05:46;;;;;;;2.17;1.97;;;;;19.20;99791.00;;;;2078759;28;20585;-46
2022/04/22 00:06:46;;;;;;;2.20;2.10;;;;;19.20;99778.00;;;;2079330;28;20584;-46
2022/04/22 00:07:47;;;;;;;2.23;2.03;;;;;19.20;99775.00;;;;2078976;28;20834;-46
2022/04/22 00:08:47;;;;;;;2.10;2.00;;;;;19.20;99780.00;;;;2079425;28;20694;-46
2022/04/22 00:09:47;;;;;;;2.17;1.97;;;;;19.20;99777.00;;;;2079228;28;20213;-46
2022/04/22 00:12:07;;;;;;;2.38;2.17;;;;;19.20;99774.00;;;;2079218;28;20686;-46
2022/04/22 00:13:08;;;;;;;2.60;2.40;;;;;19.20;99771.00;;;;2074462;28;20210;-46
2022/04/22 00:14:08;;;;;;;2.50;2.30;;;;;19.20;99772.00;;;;2071206;28;20233;-46
2022/04/22 00:15:09;;;;;;;2.10;1.90;;;;;19.20;99775.00;;;;2071022;28;20586;-46
2022/04/22 00:16:09;;;;;;;2.50;2.30;;;;;19.20;99779.00;;;;2070587;28;20583;-47
2022/04/22 00:17:10;;;;;;;2.33;2.13;;;;;19.20;99779.00;;;;2070865;28;20253;-46
2022/04/22 00:18:10;;;;;;;2.20;2.10;;;;;19.20;99784.00;;;;2071054;28;20269;-46
2022/04/22 00:19:10;;;;;;;2.10;1.93;;;;;19.20;99782.00;;;;2071148;28;20206;-46
2022/04/22 00:20:11;;;;;;;2.73;2.53;;;;;19.20;99781.00;;;;2070943;28;20221;-46
2022/04/22 00:21:11;;;;;;;2.80;2.27;;;;;19.20;99774.00;;;;2071012;28;20210;-47
2022/04/22 00:22:12;;;;;;;2.53;2.33;;;;;19.20;99789.00;;;;2071156;28;20480;-47
2022/04/22 00:23:12;;;;;;;2.60;2.40;;;;;19.20;99786.00;;;;2071104;28;20218;-46
2022/04/22 00:24:14;;;;;;;2.77;2.47;;;;;19.20;99784.00;;;;2071016;28;20215;-46
2022/04/22 00:25:14;;;;;;;2.55;2.35;;;;;19.20;99783.00;;;;2070741;28;20575;-47
2022/04/22 00:26:16;;;;;;;2.60;2.40;;;;;19.20;99788.00;;;;2075339;28;20221;-47
2022/04/22 00:27:16;;;;;;;2.45;2.25;;;;;19.20;99787.00;;;;2079130;28;20241;-46
2022/04/22 00:28:16;;;;;;;2.37;2.07;;;;;19.20;99780.00;;;;2075867;28;20225;-46
2022/04/22 00:29:17;;;;;;;2.33;2.13;;;;;19.20;99776.00;;;;2070929;28;20234;-46
2022/04/22 00:30:17;;;;;;;2.23;2.03;;;;;19.20;99785.00;;;;2071062;28;20574;-46
2022/04/22 00:31:17;;;;;;;2.50;2.30;;;;;19.20;99780.00;;;;2070759;28;20556;-46
2022/04/22 00:32:18;;;;;;;2.93;2.73;;;;;19.20;99773.00;;;;2071096;28;20705;-47
2022/04/22 00:33:18;;;;;;;2.40;2.20;;;;;19.20;99775.00;;;;2069372;28;20685;-46
2022/04/22 00:34:18;;;;;;;2.60;2.40;;;;;19.20;99777.00;;;;2070994;28;20679;-46
2022/04/22 00:35:19;;;;;;;2.30;2.20;;;;;19.20;99777.00;;;;2070428;28;20295;-47
2022/04/22 00:36:19;;;;;;;2.40;2.20;;;;;19.20;99780.00;;;;2070923;28;20264;-46
2022/04/22 00:37:19;;;;;;;1.97;1.87;;;;;19.20;99783.00;;;;2070669;28;20214;-46
2022/04/22 00:38:20;;;;;;;2.47;2.27;;;;;19.20;99773.00;;;;2070830;28;20237;-46
2022/04/22 00:39:20;;;;;;;2.00;1.90;;;;;19.20;99778.00;;;;2070926;28;20760;-46
2022/04/22 00:40:20;;;;;;;2.50;2.30;;;;;19.20;99773.00;;;;2070494;28;20586;-46
2022/04/22 00:41:21;;;;;;;2.67;2.47;;;;;19.20;99773.00;;;;2070902;28;20669;-46
2022/04/22 00:42:21;;;;;;;2.60;2.40;;;;;19.20;99765.00;;;;2071023;28;20233;-46
2022/04/22 00:43:23;;;;;;;2.70;2.50;;;;;19.20;99695.00;;;;2071008;28;20228;-46
2022/04/22 00:44:23;;;;;;;2.45;2.25;;;;;19.20;99779.00;;;;2070767;28;20214;-47
2022/04/22 00:45:23;;;;;;;2.40;2.20;;;;;19.20;99763.00;;;;2070222;28;20889;-46
2022/04/22 00:46:24;;;;;;;2.50;2.30;;;;;19.20;99769.00;;;;2070272;28;20793;-46
2022/04/22 00:47:24;;;;;;;2.40;2.20;;;;;19.20;99776.00;;;;2069895;28;20967;-46
2022/04/22 00:48:24;;;;;;;2.37;2.17;;;;;19.20;99766.00;;;;2070842;28;20697;-48
2022/04/22 00:49:25;;;;;;;2.43;2.10;;;;;19.20;99764.00;;;;2070832;28;20561;-46
2022/04/22 00:50:25;;;;;;;2.80;2.23;;;;;19.20;99765.00;;;;2070836;28;20226;-46
2022/04/22 00:51:26;;;;;;;2.17;1.93;;;;;19.20;99767.00;;;;2070981;28;20218;-46
2022/04/22 00:52:26;;;;;;;2.23;2.03;;;;;19.20;99754.00;;;;2071810;28;20599;-46
2022/04/22 00:53:26;;;;;;;2.47;2.27;;;;;19.20;99764.00;;;;2071213;28;20710;-45
2022/04/22 00:54:27;;;;;;;2.43;2.23;;;;;19.20;99761.00;;;;2069252;28;20772;-47
2022/04/22 00:55:27;;;;;;;2.80;2.60;;;;;19.20;99769.00;;;;2065561;28;20970;-46
2022/04/22 00:56:28;;;;;;;2.50;2.30;;;;;19.20;99761.00;;;;2061615;28;20951;-45
2022/04/22 00:57:28;;;;;;;2.50;2.30;;;;;19.20;99764.00;;;;2059958;28;20806;-45
2022/04/22 00:58:28;;;;;;;2.30;2.10;;;;;19.20;99766.00;;;;2061343;28;20215;-46
2022/04/22 00:59:29;;;;;;;2.90;2.10;;;;;19.20;99763.00;;;;2075453;28;20289;-45
2022/04/22 01:00:29;;;;;;;2.80;2.20;;;;;19.20;99762.00;;;;2066739;28;20742;-47
2022/04/22 01:01:30;;;;;;;2.40;2.20;;;;;19.20;99760.00;;;;2069602;28;20222;-45
2022/04/22 01:02:30;;;;;;;2.40;2.20;;;;;19.20;99755.00;;;;2075435;28;20261;-45
2022/04/22 01:03:31;;;;;;;2.40;2.20;;;;;19.20;99758.00;;;;2071059;28;20520;-46
2022/04/22 01:09:47;;;;;;;2.25;1.92;;;;;19.20;99739.00;;;;2086623;28;20292;-46
2022/04/22 01:10:00;;;;;;;2.28;2.05;;;;;19.20;99746.00;;;;2078758;28;20214;-46
2022/04/22 01:11:00;;;;;;;2.40;2.20;;;;;19.20;99743.00;;;;2078320;28;20209;-46
2022/04/22 01:12:01;;;;;;;2.30;2.10;;;;;19.20;99732.00;;;;2074335;28;20287;-46
2022/04/22 01:13:01;;;;;;;2.50;2.30;;;;;19.20;99735.00;;;;2074924;28;20221;-45
2022/04/22 01:14:02;;;;;;;2.33;2.10;;;;;19.10;99731.00;;;;2075804;28;20224;-47
2022/04/22 01:15:03;;;;;;;2.50;2.27;;;;;19.00;99734.00;;;;2077688;28;20245;-47
2022/04/22 01:16:03;;;;;;;1.95;1.83;;;;;19.20;99732.00;;;;2077055;28;20567;-46
2022/04/22 01:17:04;;;;;;;2.27;2.07;;;;;19.20;99728.00;;;;2076829;28;20812;-47
2022/04/22 01:18:04;;;;;;;2.40;2.20;;;;;19.20;99738.00;;;;2060816;28;20293;-46
2022/04/22 01:19:05;;;;;;;2.10;2.00;;;;;19.20;99725.00;;;;2084593;28;20211;-46
2022/04/22 01:20:06;;;;;;;2.70;2.50;;;;;19.20;99724.00;;;;2085898;28;20209;-46
2022/04/22 01:21:07;;;;;;;2.83;2.60;;;;;19.20;99723.00;;;;2078784;28;20209;-46
2022/04/22 01:22:08;;;;;;;2.20;2.00;;;;;19.20;99720.00;;;;2078820;28;20586;-46
2022/04/22 01:23:08;;;;;;;2.35;2.15;;;;;19.20;99722.00;;;;2072307;28;20210;-47
2022/04/22 01:24:08;;;;;;;2.30;2.10;;;;;19.20;99718.00;;;;2070484;28;20232;-46
2022/04/22 01:25:09;;;;;;;2.60;2.40;;;;;19.20;99724.00;;;;2070550;28;20209;-46
2022/04/22 01:26:09;;;;;;;2.33;2.13;;;;;19.20;99722.00;;;;2069861;28;20235;-46
2022/04/22 01:27:10;;;;;;;2.33;2.13;;;;;19.20;99717.00;;;;2076503;28;20282;-46
2022/04/22 01:28:10;;;;;;;2.30;2.10;;;;;19.20;99719.00;;;;2078625;28;20216;-47
2022/04/22 01:29:11;;;;;;;2.63;2.43;;;;;19.20;99722.00;;;;2078753;28;20630;-47
2022/04/22 01:30:12;;;;;;;2.15;2.03;;;;;19.20;99724.00;;;;2077782;28;20315;-46
2022/04/22 01:31:12;;;;;;;2.57;2.37;;;;;19.20;99720.00;;;;2077872;28;20217;-46
2022/04/22 01:32:13;;;;;;;2.40;2.20;;;;;19.20;99710.00;;;;2078850;28;20576;-46
2022/04/22 01:33:13;;;;;;;2.15;2.00;;;;;19.20;99713.00;;;;2078864;28;20209;-46
2022/04/22 01:34:14;;;;;;;2.57;2.37;;;;;19.20;99714.00;;;;2078662;28;20217;-46
2022/04/22 01:35:14;;;;;;;2.30;2.10;;;;;19.20;99715.00;;;;2078582;28;20217;-46
2022/04/22 01:36:16;;;;;;;2.17;2.03;;;;;19.20;99720.00;;;;2077723;28;20228;-46
2022/04/22 01:37:16;;;;;;;2.45;2.25;;;;;19.20;99718.00;;;;2077907;28;20213;-46
2022/04/22 01:38:16;;;;;;;2.27;2.10;;;;;19.20;99714.00;;;;2071841;28;20268;-46
2022/04/22 01:39:17;;;;;;;2.63;2.43;;;;;19.20;99714.00;;;;2078323;28;20220;-46
2022/04/22 01:40:18;;;;;;;2.53;2.03;;;;;19.20;99716.00;;;;2078731;28;20590;-47
2022/04/22 01:41:18;;;;;;;2.47;2.27;;;;;19.20;99715.00;;;;2078566;28;20593;-46
2022/04/22 01:42:18;;;;;;;2.77;2.57;;;;;19.20;99719.00;;;;2078912;28;20265;-46
2022/04/22 01:43:19;;;;;;;3.60;2.83;;;;;19.20;99715.00;;;;2078783;28;20297;-46
2022/04/22 01:44:19;;;;;;;2.03;1.93;;;;;19.20;99715.00;;;;2078514;28;20210;-45
2022/04/22 01:45:19;;;;;;;2.97;2.77;;;;;19.20;99720.00;;;;2078600;28;20240;-46
2022/04/22 01:46:20;;;;;;;2.47;2.27;;;;;19.20;99711.00;;;;2080250;28;20237;-46
2022/04/22 01:47:20;;;;;;;2.50;2.30;;;;;19.20;99724.00;;;;2078221;28;20263;-46
2022/04/22 01:48:20;;;;;;;2.23;2.13;;;;;19.20;99722.00;;;;2072313;28;20214;-46
2022/04/22 01:49:21;;;;;;;2.67;2.37;;;;;19.20;99719.00;;;;2079560;28;20230;-46
2022/04/22 01:50:21;;;;;;;2.40;2.07;;;;;19.20;99711.00;;;;2075924;28;20233;-46
2022/04/22 01:51:21;;;;;;;2.63;2.43;;;;;19.20;99719.00;;;;2077447;28;20237;-45
2022/04/22 01:52:22;;;;;;;2.17;1.97;;;;;19.20;99708.00;;;;2080487;28;20229;-46
2022/04/22 01:53:22;;;;;;;2.77;2.57;;;;;19.20;99715.00;;;;2080465;28;20224;-47
2022/04/22 01:54:23;;;;;;;3.00;2.40;;;;;19.20;99716.00;;;;2080280;28;20213;-46
2022/04/22 01:55:23;;;;;;;2.23;2.03;;;;;19.20;99717.00;;;;2079598;28;20232;-47
2022/04/22 01:56:23;;;;;;;2.50;2.30;;;;;19.20;99711.00;;;;2080398;28;20221;-46
2022/04/22 01:57:24;;;;;;;2.70;2.50;;;;;19.20;99603.00;;;;2073784;28;20217;-46
2022/04/22 01:58:24;;;;;;;3.07;2.50;;;;;19.20;99710.00;;;;2076848;28;20925;-47
2022/04/22 01:59:24;;;;;;;2.27;1.90;;;;;19.20;99717.00;;;;2083533;28;20550;-46
2022/04/22 02:00:25;;;;;;;2.60;2.40;;;;;19.20;99713.00;;;;2082000;28;20692;-46
2022/04/22 02:01:26;;;;;;;2.90;2.33;;;;;19.20;99711.00;;;;2072448;28;20225;-46
2022/04/22 02:02:26;;;;;;;2.53;2.33;;;;;19.20;99727.00;;;;2080362;28;20220;-46
2022/04/22 02:03:27;;;;;;;2.33;2.13;;;;;19.20;99712.00;;;;2080366;28;20218;-46
2022/04/22 02:04:27;;;;;;;2.93;2.63;;;;;19.20;99721.00;;;;2079261;28;20287;-46
2022/04/22 02:05:28;;;;;;;2.70;2.50;;;;;19.20;99714.00;;;;2079546;28;20670;-46
2022/04/22 02:06:28;;;;;;;2.43;2.23;;;;;19.20;99714.00;;;;2080202;28;20220;-46
2022/04/22 02:07:28;;;;;;;2.40;2.20;;;;;19.20;99707.00;;;;2080174;28;20217;-47
2022/04/22 02:08:31;;;;;;;2.47;2.27;;;;;19.20;99714.00;;;;2079303;28;20209;-46
2022/04/22 02:09:31;;;;;;;2.42;2.25;;;;;19.20;99714.00;;;;2076359;28;20750;-47
2022/04/22 02:10:31;;;;;;;2.80;2.60;;;;;19.20;99706.00;;;;2072341;28;20218;-46
2022/04/22 02:11:32;;;;;;;2.63;2.43;;;;;19.20;99717.00;;;;2070757;28;20225;-46
2022/04/22 02:12:32;;;;;;;2.50;2.30;;;;;19.20;99715.00;;;;2071757;28;20679;-46
2022/04/22 02:13:39;;;;;;;2.40;2.20;;;;;19.20;99722.00;;;;2071630;28;20222;-46
2022/04/22 02:14:39;;;;;;;2.85;2.17;;;;;19.20;99713.00;;;;2071052;28;20233;-48
2022/04/22 02:15:39;;;;;;;2.50;2.30;;;;;19.10;99710.00;;;;2071066;28;20256;-45
2022/04/22 02:16:40;;;;;;;2.30;2.10;;;;;19.20;99711.00;;;;2071751;28;20244;-46
2022/04/22 02:17:41;;;;;;;2.60;2.40;;;;;19.10;99715.00;;;;2071048;28;20214;-46
2022/04/22 02:18:42;;;;;;;2.78;2.58;;;;;19.20;99710.00;;;;2071226;28;20721;-47
2022/04/22 02:19:42;;;;;;;2.50;2.30;;;;;19.20;99714.00;;;;2072467;28;20264;-47
2022/04/22 02:20:44;;;;;;;2.57;2.37;;;;;19.20;99718.00;;;;2079826;28;20294;-47
2022/04/22 02:21:44;;;;;;;2.40;2.20;;;;;19.20;99707.00;;;;2079573;28;20721;-46
2022/04/22 02:22:44;;;;;;;2.43;2.20;;;;;19.20;99714.00;;;;2079626;28;20224;-46
2022/04/22 02:23:45;;;;;;;2.60;2.40;;;;;19.20;99711.00;;;;2078970;28;20221;-46
2022/04/22 02:24:45;;;;;;;2.27;2.10;;;;;19.20;99715.00;;;;2076446;28;20233;-46
2022/04/22 02:25:45;;;;;;;2.37;2.17;;;;;19.20;99712.00;;;;2070370;28;20214;-46
2022/04/22 02:29:23;;;;;;;3.55;2.40;;;;;19.10;99719.00;;;;2082203;28;20217;-46
2022/04/22 02:30:24;;;;;;;2.17;1.87;;;;;19.10;99710.00;;;;2079491;28;20698;-46
2022/04/22 02:31:24;;;;;;;2.63;2.43;;;;;19.10;99662.00;;;;2078897;28;20848;-46
2022/04/22 02:32:24;;;;;;;2.13;2.03;;;;;19.20;99715.00;;;;2079568;28;20230;-46
2022/04/22 02:33:25;;;;;;;2.60;2.40;;;;;19.20;99707.00;;;;2079802;28;20631;-46
2022/04/22 02:34:25;;;;;;;2.47;2.27;;;;;19.10;99710.00;;;;2079104;28;21045;-46
2022/04/22 02:35:26;;;;;;;2.43;2.23;;;;;19.20;99712.00;;;;2076393;28;20228;-46
2022/04/22 02:36:27;;;;;;;2.43;2.23;;;;;19.10;99716.00;;;;2070765;28;20222;-46
2022/04/22 02:37:27;;;;;;;2.50;2.30;;;;;19.10;99700.00;;;;2071368;28;20309;-46
2022/04/22 02:38:28;;;;;;;2.33;2.10;;;;;19.20;99699.00;;;;2071451;28;20229;-46
2022/04/22 02:39:28;;;;;;;2.50;2.30;;;;;19.10;99701.00;;;;2070718;28;20656;-47
2022/04/22 02:45:44;;;;;;;5.28;2.45;;;;;19.20;99697.00;;;;2079062;28;20209;-46
2022/04/22 02:46:44;;;;;;;2.47;2.27;;;;;19.20;99694.00;;;;2078622;28;20217;-46
2022/04/22 02:47:45;;;;;;;2.63;2.43;;;;;19.10;99694.00;;;;2078638;28;21261;-46
2022/04/22 02:48:45;;;;;;;2.63;2.43;;;;;19.10;99699.00;;;;2079533;28;20216;-46
2022/04/22 02:49:45;;;;;;;2.43;2.23;;;;;19.10;99688.00;;;;2075627;28;20237;-47
2022/04/22 02:50:46;;;;;;;2.60;2.40;;;;;19.10;99697.00;;;;2079689;28;20216;-46
2022/04/22 02:51:46;;;;;;;2.60;2.40;;;;;19.10;99702.00;;;;2072408;28;20222;-46
2022/04/22 02:52:46;;;;;;;2.57;2.37;;;;;19.10;99698.00;;;;2071647;28;20220;-46
2022/04/22 02:53:47;;;;;;;2.70;2.50;;;;;19.10;99701.00;;;;2074440;28;21157;-51
2022/04/22 02:54:47;;;;;;;2.40;2.20;;;;;19.10;99693.00;;;;2079267;28;20214;-48
2022/04/22 02:55:49;;;;;;;2.10;2.00;;;;;19.10;99697.00;;;;2078411;28;20299;-46
2022/04/22 02:56:50;;;;;;;2.60;2.40;;;;;19.10;99692.00;;;;2078259;28;20209;-46
2022/04/22 02:57:51;;;;;;;2.42;2.22;;;;;19.10;99685.00;;;;2078407;28;20765;-47
2022/04/22 02:58:52;;;;;;;2.30;2.10;;;;;19.20;99684.00;;;;2079208;28;20213;-46
2022/04/22 02:59:53;;;;;;;2.43;2.23;;;;;19.10;99693.00;;;;2077418;28;20233;-46
2022/04/22 03:00:53;;;;;;;2.53;2.33;;;;;19.10;99684.00;;;;2074700;28;20745;-47
2022/04/22 03:01:54;;;;;;;2.33;2.13;;;;;19.10;99691.00;;;;2070963;28;20214;-47
2022/04/22 03:02:54;;;;;;;2.60;2.07;;;;;19.10;99691.00;;;;2071377;28;20210;-47
2022/04/22 03:03:54;;;;;;;2.40;2.20;;;;;19.10;99689.00;;;;2070678;28;20237;-46
2022/04/22 03:04:55;;;;;;;2.70;2.50;;;;;19.10;99691.00;;;;2074268;28;20228;-46
2022/04/22 03:05:55;;;;;;;2.60;2.40;;;;;19.10;99691.00;;;;2078651;28;20588;-46
2022/04/22 03:06:56;;;;;;;2.30;2.10;;;;;19.10;99693.00;;;;2078357;28;20213;-46
2022/04/22 03:07:57;;;;;;;2.92;2.72;;;;;19.10;99686.00;;;;2073086;28;20207;-46
2022/04/22 03:08:57;;;;;;;2.13;1.93;;;;;19.10;99687.00;;;;2077808;28;20570;-46
2022/04/22 03:09:57;;;;;;;2.40;2.20;;;;;19.10;99681.00;;;;2078976;28;20577;-46
2022/04/22 03:10:58;;;;;;;2.90;2.67;;;;;19.10;99689.00;;;;2079173;28;20644;-46
2022/04/22 03:11:58;;;;;;;2.47;2.27;;;;;19.10;99693.00;;;;2077503;28;20581;-46
2022/04/22 03:12:59;;;;;;;2.50;2.30;;;;;19.10;99691.00;;;;2071088;28;20628;-46
2022/04/22 03:13:59;;;;;;;2.40;2.20;;;;;19.10;99690.00;;;;2071016;28;21139;-46
2022/04/22 03:14:59;;;;;;;2.53;2.33;;;;;19.10;99690.00;;;;2070643;28;20211;-46
2022/04/22 03:16:02;;;;;;;2.60;2.33;;;;;19.10;99688.00;;;;2070641;28;20297;-46
2022/04/22 03:17:02;;;;;;;2.72;2.38;;;;;19.20;99690.00;;;;2069314;28;20216;-46
2022/04/22 03:18:03;;;;;;;2.80;2.60;;;;;19.10;99688.00;;;;2077770;28;20578;-47
2022/04/22 03:19:03;;;;;;;2.57;2.37;;;;;19.10;99683.00;;;;2078764;28;20214;-47
2022/04/22 03:20:04;;;;;;;2.57;2.37;;;;;19.10;99688.00;;;;2077682;28;20303;-46
2022/04/22 03:21:05;;;;;;;2.53;2.33;;;;;19.10;99685.00;;;;2071254;28;20303;-46
2022/04/22 03:22:05;;;;;;;2.53;2.33;;;;;19.10;99676.00;;;;2071663;28;20201;-46
2022/04/22 03:23:05;;;;;;;2.40;2.20;;;;;19.10;99685.00;;;;2076009;28;20206;-46
2022/04/22 03:24:07;;;;;;;2.57;2.37;;;;;19.10;99688.00;;;;2079120;28;20205;-46
2022/04/22 03:25:08;;;;;;;2.53;2.33;;;;;19.10;99680.00;;;;2078484;28;20213;-47
2022/04/22 03:26:08;;;;;;;2.25;2.05;;;;;19.10;99686.00;;;;2079145;28;20204;-46
2022/04/22 03:27:09;;;;;;;3.27;2.97;;;;;19.10;99681.00;;;;2079705;28;20216;-46
2022/04/22 03:28:09;;;;;;;2.53;2.33;;;;;19.10;99689.00;;;;2079716;28;20304;-46
2022/04/22 03:29:09;;;;;;;2.60;2.40;;;;;19.10;99692.00;;;;2076961;28;20220;-46
2022/04/22 03:30:10;;;;;;;2.57;2.37;;;;;19.10;99688.00;;;;2078758;28;20201;-46
2022/04/22 03:31:11;;;;;;;2.33;2.13;;;;;19.10;99679.00;;;;2079620;28;20210;-47
2022/04/22 03:32:11;;;;;;;2.40;2.20;;;;;19.10;99680.00;;;;2079605;28;20436;-47
2022/04/22 03:33:11;;;;;;;3.00;2.20;;;;;19.10;99681.00;;;;2078418;28;20245;-47
2022/04/22 03:34:12;;;;;;;2.57;2.37;;;;;19.10;99692.00;;;;2076299;28;20222;-46
2022/04/22 03:35:12;;;;;;;2.70;2.50;;;;;19.10;99675.00;;;;2071096;28;20430;-46
2022/04/22 03:36:12;;;;;;;2.70;2.50;;;;;19.10;99673.00;;;;2070832;28;20222;-46
2022/04/22 03:37:13;;;;;;;3.90;2.90;;;;;19.10;99679.00;;;;2070709;28;20225;-46
2022/04/22 03:38:14;;;;;;;2.60;2.40;;;;;19.10;99683.00;;;;2070823;28;20210;-46
2022/04/22 03:39:15;;;;;;;2.90;2.70;;;;;19.10;99672.00;;;;2071467;28;20213;-47
2022/04/22 03:40:15;;;;;;;2.80;2.20;;;;;19.10;99668.00;;;;2071512;28;20214;-46
2022/04/22 03:41:16;;;;;;;2.70;2.50;;;;;19.10;99678.00;;;;2071127;28;20229;-46
2022/04/22 03:42:16;;;;;;;2.40;2.20;;;;;19.10;99679.00;;;;2071340;28;20225;-46
2022/04/22 03:43:16;;;;;;;2.60;2.40;;;;;19.10;99672.00;;;;2071485;28;20242;-46
2022/04/22 03:44:17;;;;;;;2.67;2.23;;;;;19.10;99665.00;;;;2071393;28;20323;-46
2022/04/22 03:45:17;;;;;;;2.70;2.50;;;;;19.10;99665.00;;;;2071137;28;20987;-46
2022/04/22 03:46:17;;;;;;;2.87;2.57;;;;;19.10;99666.00;;;;2070998;28;20214;-46
2022/04/22 03:47:19;;;;;;;2.70;2.40;;;;;19.10;99683.00;;;;2070306;28;20218;-46
2022/04/22 03:48:20;;;;;;;2.88;2.67;;;;;19.10;99671.00;;;;2074436;28;20693;-46
2022/04/22 03:49:20;;;;;;;2.67;2.47;;;;;19.10;99675.00;;;;2071194;28;20223;-46
2022/04/22 03:50:22;;;;;;;2.47;2.27;;;;;19.10;99664.00;;;;2074225;28;20494;-46
2022/04/22 03:51:22;;;;;;;2.85;2.65;;;;;19.10;99676.00;;;;2079430;28;20990;-46
2022/04/22 03:52:22;;;;;;;2.50;2.30;;;;;19.10;99671.00;;;;2079582;28;20229;-46
2022/04/22 03:53:23;;;;;;;2.50;2.30;;;;;19.10;99672.00;;;;2079454;28;20221;-47
2022/04/22 03:54:25;;;;;;;2.47;2.27;;;;;19.10;99672.00;;;;2079406;28;20261;-46
2022/04/22 03:55:25;;;;;;;2.40;2.20;;;;;19.10;99685.00;;;;2078634;28;20274;-46
2022/04/22 03:59:05;;;;;;;2.53;2.33;;;;;19.10;99669.00;;;;2070921;28;20218;-46
2022/04/22 04:00:06;;;;;;;2.70;2.50;;;;;19.10;99673.00;;;;2070840;28;20268;-46
2022/04/22 04:01:07;;;;;;;2.92;2.60;;;;;19.10;99672.00;;;;2070311;28;20296;-46
2022/04/22 04:02:07;;;;;;;2.43;2.23;;;;;19.10;99677.00;;;;2070073;28;20648;-46
2022/04/22 04:03:20;;;;;;;3.13;2.50;;;;;19.10;99677.00;;;;2070185;28;20641;-46
2022/04/22 04:04:21;;;;;;;2.88;2.55;;;;;19.10;99671.00;;;;2077703;28;20231;-46
2022/04/22 04:05:21;;;;;;;2.50;2.30;;;;;19.10;99678.00;;;;2078509;28;20213;-47
2022/04/22 04:06:23;;;;;;;2.80;2.60;;;;;19.10;99671.00;;;;2078623;28;20217;-46
2022/04/22 04:07:23;;;;;;;2.75;2.55;;;;;19.10;99677.00;;;;2078610;28;20213;-46
2022/04/22 04:08:24;;;;;;;2.77;2.57;;;;;19.10;99672.00;;;;2078784;28;20309;-46
2022/04/22 04:15:59;;;;;;;3.05;2.75;;;;;19.10;99671.00;;;;2071848;28;20214;-46
2022/04/22 04:16:59;;;;;;;3.03;2.60;;;;;19.10;99664.00;;;;2070912;28;20206;-46
2022/04/22 04:18:00;;;;;;;3.00;2.30;;;;;19.10;99666.00;;;;2071048;28;20297;-46
2022/04/22 04:23:15;;;;;;;2.92;2.72;;;;;19.10;99666.00;;;;2079295;28;20300;-46
2022/04/22 04:24:15;;;;;;;2.92;2.60;;;;;19.10;99661.00;;;;2080901;28;20217;-46
2022/04/22 04:25:16;;;;;;;3.00;2.80;;;;;19.10;99658.00;;;;2078727;28;20240;-46
2022/04/22 04:26:16;;;;;;;2.80;2.40;;;;;19.10;99668.00;;;;2078650;28;20209;-46
2022/04/22 04:27:17;;;;;;;2.83;2.63;;;;;19.10;99661.00;;;;2079276;28;20205;-46
2022/04/22 04:28:17;;;;;;;3.10;2.80;;;;;19.10;99666.00;;;;2071601;28;20206;-46
2022/04/22 04:29:18;;;;;;;3.00;2.80;;;;;19.10;99663.00;;;;2072005;28;20694;-46
2022/04/22 04:30:19;;;;;;;2.53;2.33;;;;;19.10;99666.00;;;;2079102;28;20217;-46
2022/04/22 04:31:20;;;;;;;3.38;3.08;;;;;19.10;99660.00;;;;2079076;28;20463;-46
2022/04/22 04:32:20;;;;;;;3.13;2.83;;;;;19.10;99660.00;;;;2079233;28;20217;-46
2022/04/22 04:33:21;;;;;;;2.80;2.60;;;;;19.10;99662.00;;;;2079201;28;20245;-46
2022/04/22 04:34:22;;;;;;;2.60;2.40;;;;;19.10;99658.00;;;;2079034;28;20217;-46
2022/04/22 04:35:22;;;;;;;3.10;2.90;;;;;19.10;99608.00;;;;2078470;28;20249;-47
2022/04/22 04:36:22;;;;;;;3.50;2.63;;;;;19.10;99658.00;;;;2071620;28;20222;-47
2022/04/22 04:37:22;;;;;;;2.50;2.30;;;;;19.10;99654.00;;;;2070792;28;20324;-47
2022/04/22 04:38:23;;;;;;;3.27;2.97;;;;;19.10;99660.00;;;;2071053;28;20650;-45
2022/04/22 04:39:23;;;;;;;2.60;2.40;;;;;19.10;99651.00;;;;2076996;28;20878;-46
2022/04/22 04:40:24;;;;;;;2.90;2.70;;;;;19.10;99658.00;;;;2079148;28;20279;-46
2022/04/22 04:41:24;;;;;;;2.60;2.40;;;;;19.10;99659.00;;;;2079114;28;20228;-46
2022/04/22 04:42:25;;;;;;;3.00;2.80;;;;;19.10;99652.00;;;;2079354;28;20675;-46
2022/04/22 04:43:26;;;;;;;2.55;2.35;;;;;19.10;99656.00;;;;2079223;28;20736;-46
2022/04/22 04:44:27;;;;;;;3.58;3.25;;;;;19.10;99655.00;;;;2079377;28;20217;-46
2022/04/22 04:45:30;;;;;;;3.03;2.70;;;;;19.10;99654.00;;;;2078054;28;20800;-46
2022/04/22 04:46:31;;;;;;;2.50;2.30;;;;;19.10;99658.00;;;;2078958;28;20235;-46
2022/04/22 04:47:38;;;;;;;3.10;2.60;;;;;19.10;99657.00;;;;2078656;28;20217;-45
2022/04/22 04:48:38;;;;;;;3.05;2.53;;;;;19.10;99653.00;;;;2077967;28;20240;-47
2022/04/22 04:49:38;;;;;;;3.00;2.80;;;;;19.10;99645.00;;;;2077035;28;20216;-47
2022/04/22 04:50:43;;;;;;;3.40;3.10;;;;;19.10;99659.00;;;;2079064;28;20228;-46
2022/04/22 04:51:43;;;;;;;2.90;2.65;;;;;19.10;99657.00;;;;2078137;28;20757;-46
2022/04/22 04:52:44;;;;;;;2.70;2.50;;;;;19.10;99657.00;;;;2078553;28;20245;-45
2022/04/22 04:53:44;;;;;;;2.87;2.67;;;;;19.10;99656.00;;;;2078241;28;20240;-46
2022/04/22 04:54:46;;;;;;;2.97;2.77;;;;;19.10;99656.00;;;;2078162;28;20240;-46
2022/04/22 04:55:47;;;;;;;3.08;2.85;;;;;19.10;99659.00;;;;2078127;28;20209;-47
2022/04/22 04:56:47;;;;;;;3.27;2.97;;;;;19.10;99659.00;;;;2079080;28;20248;-48
2022/04/22 04:57:48;;;;;;;2.70;2.50;;;;;19.10;99651.00;;;;2078198;28;20690;-46
2022/04/22 04:58:48;;;;;;;2.87;2.67;;;;;19.10;99644.00;;;;2078421;28;20244;-45
2022/04/22 04:59:48;;;;;;;2.67;2.47;;;;;19.10;99647.00;;;;2077807;28;20209;-46
2022/04/22 05:00:49;;;;;;;3.23;2.93;;;;;19.10;99645.00;;;;2078836;28;20237;-46
2022/04/22 05:01:49;;;;;;;2.90;2.70;;;;;19.10;99648.00;;;;2078890;28;20213;-46
2022/04/22 05:02:50;;;;;;;3.40;2.80;;;;;19.10;99638.00;;;;2079039;28;20563;-47
2022/04/22 05:03:50;;;;;;;2.90;2.70;;;;;19.10;99649.00;;;;2079046;28;20232;-46
2022/04/22 05:04:50;;;;;;;3.10;2.90;;;;;19.10;99645.00;;;;2071708;28;20572;-46
2022/04/22 05:05:51;;;;;;;3.03;2.83;;;;;19.10;99647.00;;;;2077904;28;20202;-46
2022/04/22 05:06:52;;;;;;;3.23;2.97;;;;;19.10;99647.00;;;;2078985;28;20221;-46
2022/04/22 05:07:57;;;;;;;3.10;2.90;;;;;19.10;99647.00;;;;2078803;28;20456;-47
2022/04/22 05:08:57;;;;;;;3.05;2.80;;;;;19.10;99648.00;;;;2078794;28;20567;-46
2022/04/22 05:09:58;;;;;;;3.43;3.13;;;;;19.10;99651.00;;;;2078903;28;20308;-46
2022/04/22 05:10:58;;;;;;;3.27;3.00;;;;;19.10;99647.00;;;;2079058;28;20237;-46
2022/04/22 05:11:58;;;;;;;3.20;2.90;;;;;19.10;99647.00;;;;2078807;28;20294;-47
2022/04/22 05:13:03;;;;;;;2.93;2.73;;;;;19.10;99648.00;;;;2078999;28;20228;-46
2022/04/22 05:14:04;;;;;;;3.20;3.00;;;;;19.10;99645.00;;;;2078803;28;20274;-46
2022/04/22 05:15:05;;;;;;;2.83;2.63;;;;;19.10;99644.00;;;;2078668;28;20676;-46
2022/04/22 05:16:05;;;;;;;3.37;3.10;;;;;19.10;99648.00;;;;2078072;28;20217;-47
2022/04/22 05:17:05;;;;;;;3.00;2.70;;;;;19.10;99640.00;;;;2078981;28;20449;-47
2022/04/22 05:18:06;;;;;;;3.10;2.90;;;;;19.10;99645.00;;;;2078924;28;20210;-46
2022/04/22 05:19:06;;;;;;;3.13;2.93;;;;;19.10;99644.00;;;;2078691;28;20214;-46
2022/04/22 05:20:08;;;;;;;3.50;3.20;;;;;19.10;99645.00;;;;2078653;28;20229;-46
2022/04/22 05:21:08;;;;;;;3.22;3.00;;;;;19.10;99643.00;;;;2077739;28;20205;-47
2022/04/22 05:22:09;;;;;;;3.57;3.23;;;;;19.10;99643.00;;;;2069889;28;20325;-46
2022/04/22 05:23:09;;;;;;;3.40;3.10;;;;;19.10;99647.00;;;;2074643;28;20644;-46
2022/04/22 05:24:09;;;;;;;3.20;2.90;;;;;19.10;99649.00;;;;2078537;28;20626;-46
2022/04/22 05:25:11;;;;;;;2.80;2.60;;;;;19.10;99653.00;;;;2078709;28;20708;-46
2022/04/22 05:26:12;;;;;;;2.90;2.70;;;;;19.10;99651.00;;;;2075443;28;20710;-47
2022/04/22 05:27:12;;;;;;;3.17;2.90;;;;;19.10;99649.00;;;;2070527;28;20224;-46
2022/04/22 05:28:13;;;;;;;3.03;2.83;;;;;19.10;99647.00;;;;2078263;28;20217;-46
2022/04/22 05:33:10;;;;;;;3.38;3.08;;;;;19.10;99647.00;;;;2078452;28;20209;-46
2022/04/22 05:34:10;;;;;;;3.23;2.93;;;;;19.10;99649.00;;;;2078217;28;20241;-46
2022/04/22 05:35:11;;;;;;;3.97;3.30;;;;;19.10;99651.00;;;;2078677;28;20218;-46